Betagas — V2KA8 — position and weather

sailwx.info

Track history (hours):
 
Tides and Currents Weather Stations Pressure Air Temp Water Temp Dewpoint Dewpoint Depression Visibility Wind Speed Wind Dir Waves Ship Positions

Betagas

Last reported at 2014-Aug-31 11:27 UTC. Time now 2014-Sep-01 21:17 UTC.
Position N 37°04' E 002°48'.

Length 114.6 m; beam 15.7 m; draft 7.4 m.

Type: Tanker. MMSI: 304050636.

Date/timePositionNaut miles runAvg speedWind from/ knotsBaromVisibWave heightAir tempDewpointWater temp
2014-Aug-31 11:27N 37°04' E 002°48'10012.6
2014-Aug-31 03:30N 37°19' E 004°52'1212.8
2014-Aug-31 02:33N 37°21' E 005°07'1613.2
2014-Aug-31 01:21N 37°24' E 005°27'1114.0
2014-Aug-31 00:33N 37°25' E 005°41'1414.0
2014-Aug-30 23:33N 37°27' E 005°58'4513.3
2014-Aug-30 20:09N 37°35' E 006°55'1013.0
2014-Aug-30 19:23N 37°36' E 007°07'1613.4
2014-Aug-30 18:10N 37°39' E 007°27'812.7
2014-Aug-30 17:33N 37°40' E 007°37'1312.9
2014-Aug-30 16:33N 37°42' E 007°53'1413.8
2014-Aug-30 15:30N 37°44' E 008°11'1212.7
2014-Aug-30 14:33N 37°46' E 008°27'1313.1
2014-Aug-30 13:33N 37°48' E 008°43'1313.1
2014-Aug-30 12:33N 37°50' E 008°59'1312.8
2014-Aug-30 11:33N 37°52' E 009°15'1313.1
2014-Aug-30 10:33N 37°54' E 009°32'1312.7
2014-Aug-30 09:33N 37°56' E 009°48'1212.6
2014-Aug-30 08:34N 37°58' E 010°03'1312.8
2014-Aug-30 07:33N 38°00' E 010°20'12512.4
2014-Aug-29 21:27N 38°18' E 012°57'1213.8
2014-Aug-29 20:34N 38°18' E 013°13'1413.6
2014-Aug-29 19:34N 38°18' E 013°30'1413.4
2014-Aug-29 18:33N 38°18' E 013°48'1313.4
2014-Aug-29 17:33N 38°18' E 014°05'56 2.3
2014-Aug-28 16:30N 38°13' E 015°16'0 0.0
2014-Aug-28 15:29N 38°13' E 015°16'0 0.0
2014-Aug-28 14:29N 38°13' E 015°16'0 0.0
2014-Aug-28 13:30N 38°13' E 015°16'0 0.0
2014-Aug-28 12:30N 38°13' E 015°16'0 0.0
2014-Aug-28 11:29N 38°13' E 015°16'0 0.0
2014-Aug-28 09:12N 38°13' E 015°16'0 0.0
2014-Aug-28 08:30N 38°13' E 015°16'0 0.0
2014-Aug-28 07:30N 38°13' E 015°16'0 0.0
2014-Aug-28 06:30N 38°13' E 015°16'0 0.0
2014-Aug-28 05:30N 38°13' E 015°16'0 0.0
2014-Aug-28 04:30N 38°13' E 015°16'0 0.0
2014-Aug-28 03:30N 38°13' E 015°16'0 0.0
2014-Aug-28 02:29N 38°13' E 015°16'0 0.0
2014-Aug-28 01:29N 38°13' E 015°16'0 0.0
2014-Aug-28 00:24N 38°13' E 015°16'0 0.0
2014-Aug-27 23:30N 38°13' E 015°16'0 0.0
2014-Aug-27 22:29N 38°13' E 015°16'0 0.0
2014-Aug-27 21:30N 38°13' E 015°16'0 0.0
2014-Aug-27 20:30N 38°13' E 015°16'0 0.0
2014-Aug-27 19:30N 38°13' E 015°16'0 0.0
2014-Aug-27 18:30N 38°13' E 015°16'0 0.0
2014-Aug-27 17:24N 38°13' E 015°16'0 0.0
2014-Aug-27 16:30N 38°13' E 015°16'0 0.0
2014-Aug-27 15:30N 38°13' E 015°16'0 0.0
2014-Aug-27 14:30N 38°13' E 015°16'1 0.0
2014-Aug-26 16:31N 38°13' E 015°17'0 0.0
2014-Aug-26 15:31N 38°13' E 015°17'0 0.0
2014-Aug-26 14:31N 38°13' E 015°17'0 0.0
2014-Aug-26 13:31N 38°13' E 015°17'0 0.0
2014-Aug-26 12:31N 38°13' E 015°17'0 0.0
2014-Aug-26 11:25N 38°13' E 015°17'0 0.0
2014-Aug-26 10:31N 38°13' E 015°17'0 0.0
2014-Aug-26 09:31N 38°13' E 015°17'0 0.0
2014-Aug-24 15:31N 38°13' E 015°17'0 0.0
2014-Aug-24 14:31N 38°13' E 015°17'0 0.0
2014-Aug-24 13:31N 38°13' E 015°17'0 0.0
2014-Aug-24 12:31N 38°13' E 015°17'0 0.0
2014-Aug-24 11:31N 38°13' E 015°17'0 0.0
2014-Aug-24 10:31N 38°13' E 015°17'  
Track history (hours):
 
Tides and Currents Weather Stations Pressure Air Temp Water Temp Dewpoint Dewpoint Depression Visibility Wind Speed Wind Dir Waves Ship Positions

Betagas

Last reported at 2014-Aug-31 11:27 UTC. Time now 2014-Sep-01 21:17 UTC.
Position N 37°04' E 002°48'.

Length 114.6 m; beam 15.7 m; draft 7.4 m.

Type: Tanker. MMSI: 304050636.

Date/timePositionNaut miles runAvg speedWind from/ knotsBaromVisibWave heightAir tempDewpointWater temp
2014-Aug-31 11:27N 37°04' E 002°48'10012.6
2014-Aug-31 03:30N 37°19' E 004°52'1212.8
2014-Aug-31 02:33N 37°21' E 005°07'1613.2
2014-Aug-31 01:21N 37°24' E 005°27'1114.0
2014-Aug-31 00:33N 37°25' E 005°41'1414.0
2014-Aug-30 23:33N 37°27' E 005°58'4513.3
2014-Aug-30 20:09N 37°35' E 006°55'1013.0
2014-Aug-30 19:23N 37°36' E 007°07'1613.4
2014-Aug-30 18:10N 37°39' E 007°27'812.7
2014-Aug-30 17:33N 37°40' E 007°37'1312.9
2014-Aug-30 16:33N 37°42' E 007°53'1413.8
2014-Aug-30 15:30N 37°44' E 008°11'1212.7
2014-Aug-30 14:33N 37°46' E 008°27'1313.1
2014-Aug-30 13:33N 37°48' E 008°43'1313.1
2014-Aug-30 12:33N 37°50' E 008°59'1312.8
2014-Aug-30 11:33N 37°52' E 009°15'1313.1
2014-Aug-30 10:33N 37°54' E 009°32'1312.7
2014-Aug-30 09:33N 37°56' E 009°48'1212.6
2014-Aug-30 08:34N 37°58' E 010°03'1312.8
2014-Aug-30 07:33N 38°00' E 010°20'12512.4
2014-Aug-29 21:27N 38°18' E 012°57'1213.8
2014-Aug-29 20:34N 38°18' E 013°13'1413.6
2014-Aug-29 19:34N 38°18' E 013°30'1413.4
2014-Aug-29 18:33N 38°18' E 013°48'1313.4
2014-Aug-29 17:33N 38°18' E 014°05'56 2.3
2014-Aug-28 16:30N 38°13' E 015°16'0 0.0
2014-Aug-28 15:29N 38°13' E 015°16'0 0.0
2014-Aug-28 14:29N 38°13' E 015°16'0 0.0
2014-Aug-28 13:30N 38°13' E 015°16'0 0.0
2014-Aug-28 12:30N 38°13' E 015°16'0 0.0
2014-Aug-28 11:29N 38°13' E 015°16'0 0.0
2014-Aug-28 09:12N 38°13' E 015°16'0 0.0
2014-Aug-28 08:30N 38°13' E 015°16'0 0.0
2014-Aug-28 07:30N 38°13' E 015°16'0 0.0
2014-Aug-28 06:30N 38°13' E 015°16'0 0.0
2014-Aug-28 05:30N 38°13' E 015°16'0 0.0
2014-Aug-28 04:30N 38°13' E 015°16'0 0.0
2014-Aug-28 03:30N 38°13' E 015°16'0 0.0
2014-Aug-28 02:29N 38°13' E 015°16'0 0.0
2014-Aug-28 01:29N 38°13' E 015°16'0 0.0
2014-Aug-28 00:24N 38°13' E 015°16'0 0.0
2014-Aug-27 23:30N 38°13' E 015°16'0 0.0
2014-Aug-27 22:29N 38°13' E 015°16'0 0.0
2014-Aug-27 21:30N 38°13' E 015°16'0 0.0
2014-Aug-27 20:30N 38°13' E 015°16'0 0.0
2014-Aug-27 19:30N 38°13' E 015°16'0 0.0
2014-Aug-27 18:30N 38°13' E 015°16'0 0.0
2014-Aug-27 17:24N 38°13' E 015°16'0 0.0
2014-Aug-27 16:30N 38°13' E 015°16'0 0.0
2014-Aug-27 15:30N 38°13' E 015°16'0 0.0
2014-Aug-27 14:30N 38°13' E 015°16'1 0.0
2014-Aug-26 16:31N 38°13' E 015°17'0 0.0
2014-Aug-26 15:31N 38°13' E 015°17'0 0.0
2014-Aug-26 14:31N 38°13' E 015°17'0 0.0
2014-Aug-26 13:31N 38°13' E 015°17'0 0.0
2014-Aug-26 12:31N 38°13' E 015°17'0 0.0
2014-Aug-26 11:25N 38°13' E 015°17'0 0.0
2014-Aug-26 10:31N 38°13' E 015°17'0 0.0
2014-Aug-26 09:31N 38°13' E 015°17'0 0.0
2014-Aug-24 15:31N 38°13' E 015°17'0 0.0
2014-Aug-24 14:31N 38°13' E 015°17'0 0.0
2014-Aug-24 13:31N 38°13' E 015°17'0 0.0
2014-Aug-24 12:31N 38°13' E 015°17'0 0.0
2014-Aug-24 11:31N 38°13' E 015°17'0 0.0
2014-Aug-24 10:31N 38°13' E 015°17'  

Dump ship's entire track history